createdAt,value
2017-11-22T00:01:37.001Z,100400.92
2017-11-22T00:04:05.377Z,100399.94
2017-11-22T00:06:33.783Z,100397.17
2017-11-22T00:09:02.180Z,100404.30
2017-11-22T00:11:30.561Z,100406.59
2017-11-22T00:13:59.141Z,100395.80
2017-11-22T00:16:28.294Z,100388.84
2017-11-22T00:18:56.670Z,100389.17
2017-11-22T00:21:25.102Z,100392.52
2017-11-22T00:23:54.220Z,100383.47
2017-11-22T00:26:23.368Z,100390.19
2017-11-22T00:28:51.817Z,100395.29
2017-11-22T00:31:20.215Z,100390.73
2017-11-22T00:33:48.597Z,100381.24
2017-11-22T00:36:17.100Z,100378.44
2017-11-22T00:38:45.485Z,100378.95
2017-11-22T00:41:13.872Z,100382.99
2017-11-22T00:43:43.077Z,100384.31
2017-11-22T00:46:11.465Z,100388.11
2017-11-22T00:48:40.622Z,100393.15
2017-11-22T00:51:09.038Z,100383.71
2017-11-22T00:53:38.189Z,100394.58
2017-11-22T00:56:06.572Z,100392.16
2017-11-22T00:58:35.207Z,100394.10
2017-11-22T01:01:04.349Z,100395.45
2017-11-22T01:03:32.729Z,100391.14
2017-11-22T01:06:01.151Z,100387.98
2017-11-22T01:08:30.329Z,100384.25
2017-11-22T01:10:58.733Z,100375.30
2017-11-22T01:13:27.157Z,100390.50
2017-11-22T01:15:55.544Z,100392.03
2017-11-22T01:18:23.964Z,100371.22
2017-11-22T01:20:52.552Z,100385.50
2017-11-22T01:23:20.951Z,100381.45
2017-11-22T01:25:50.105Z,100372.25
2017-11-22T01:28:19.019Z,100373.41
2017-11-22T01:30:47.405Z,100383.70
2017-11-22T01:33:15.795Z,100384.39
2017-11-22T01:35:44.251Z,100378.50
2017-11-22T01:38:12.635Z,100374.94
2017-11-22T01:40:41.013Z,100373.69
2017-11-22T01:43:09.569Z,100376.48
2017-11-22T01:45:37.971Z,100371.05
2017-11-22T01:48:06.336Z,100363.76
2017-11-22T01:50:34.760Z,100356.25
2017-11-22T01:53:03.903Z,100353.16
2017-11-22T01:55:32.308Z,100351.16
2017-11-22T01:58:00.716Z,100354.48
2017-11-22T02:00:46.764Z,100348.05
2017-11-22T02:03:19.175Z,100353.23
2017-11-22T02:05:48.329Z,100352.48
2017-11-22T02:08:16.742Z,100348.00
2017-11-22T02:10:45.160Z,100337.81
2017-11-22T02:13:13.569Z,100340.16
2017-11-22T02:15:41.942Z,100332.06
2017-11-22T02:18:10.356Z,100331.87
2017-11-22T02:20:38.731Z,100340.30
2017-11-22T02:23:07.128Z,100326.70
2017-11-22T02:25:36.092Z,100329.61
2017-11-22T02:28:04.484Z,100329.58
2017-11-22T02:30:33.382Z,100325.42
2017-11-22T02:33:01.805Z,100332.02
2017-11-22T02:35:30.185Z,100326.27
2017-11-22T02:37:58.575Z,100324.22
2017-11-22T02:40:26.994Z,100322.69
2017-11-22T02:42:55.384Z,100312.78
2017-11-22T02:45:23.795Z,100302.26
2017-11-22T02:47:52.325Z,100300.73
2017-11-22T02:50:20.714Z,100302.58
2017-11-22T02:52:49.109Z,100309.41
2017-11-22T02:55:17.516Z,100287.81
2017-11-22T02:57:46.661Z,100288.75
2017-11-22T03:00:15.040Z,100291.16
2017-11-22T03:02:43.436Z,100284.09
2017-11-22T03:05:11.808Z,100294.66
2017-11-22T03:07:40.202Z,100298.16
2017-11-22T03:10:09.284Z,100301.31
2017-11-22T03:12:37.666Z,100305.44
2017-11-22T03:15:06.028Z,100301.37
2017-11-22T03:17:34.435Z,100289.19
2017-11-22T03:20:03.592Z,100288.51
2017-11-22T03:22:31.969Z,100281.98
2017-11-22T03:25:00.392Z,100276.58
2017-11-22T03:27:28.776Z,100276.14
2017-11-22T03:29:57.157Z,100283.69
2017-11-22T03:32:26.714Z,100286.63
2017-11-22T03:34:55.095Z,100278.98
2017-11-22T03:37:23.494Z,100289.05
2017-11-22T03:39:52.827Z,100293.25
2017-11-22T03:42:21.781Z,100287.16
2017-11-22T03:44:50.166Z,100293.52
2017-11-22T03:47:18.604Z,100285.69
2017-11-22T03:49:53.041Z,100287.64
2017-11-22T03:52:27.362Z,100298.34
2017-11-22T03:54:55.971Z,100290.28
2017-11-22T03:57:24.344Z,100282.67
2017-11-22T03:59:52.985Z,100285.75
2017-11-22T04:02:25.825Z,100284.63
2017-11-22T04:04:54.593Z,100275.80
2017-11-22T04:07:22.981Z,100277.30
2017-11-22T04:09:51.373Z,100266.47
2017-11-22T04:12:20.353Z,100268.94
2017-11-22T04:14:48.743Z,100267.97
2017-11-22T04:17:17.595Z,100270.05
2017-11-22T04:19:51.683Z,100271.64
2017-11-22T04:22:20.842Z,100271.11
2017-11-22T04:24:49.241Z,100271.59
2017-11-22T04:27:17.662Z,100265.80
2017-11-22T04:29:46.044Z,100268.06
2017-11-22T04:32:14.457Z,100259.52
2017-11-22T04:34:42.932Z,100252.22
2017-11-22T04:37:11.311Z,100254.05
2017-11-22T04:39:39.707Z,100257.52
2017-11-22T04:42:08.121Z,100258.16
2017-11-22T04:44:36.503Z,100255.87
2017-11-22T04:47:05.654Z,100244.94
2017-11-22T04:49:34.108Z,100252.04
2017-11-22T04:52:02.505Z,100255.11
2017-11-22T04:54:31.103Z,100248.94
2017-11-22T04:56:59.664Z,100230.63
2017-11-22T04:59:28.040Z,100226.59
2017-11-22T05:01:56.417Z,100244.91
2017-11-22T05:04:24.850Z,100232.16
2017-11-22T05:06:53.229Z,100231.39
2017-11-22T05:09:21.610Z,100242.80
2017-11-22T05:11:50.081Z,100240.63
2017-11-22T05:14:18.470Z,100239.54
2017-11-22T05:16:46.856Z,100233.67
2017-11-22T05:19:15.347Z,100225.61
2017-11-22T05:21:43.725Z,100242.02
2017-11-22T05:24:12.873Z,100224.84
2017-11-22T05:26:41.302Z,100224.72
2017-11-22T05:29:10.453Z,100233.03
2017-11-22T05:31:39.803Z,100218.58
2017-11-22T05:34:08.999Z,100215.41
2017-11-22T05:36:38.146Z,100218.88
2017-11-22T05:39:06.530Z,100225.41
2017-11-22T05:41:35.006Z,100222.48
2017-11-22T05:44:03.381Z,100223.91
2017-11-22T05:46:31.757Z,100219.84
2017-11-22T05:49:00.192Z,100218.82
2017-11-22T05:51:29.144Z,100219.97
2017-11-22T05:53:57.514Z,100220.15
2017-11-22T05:56:25.929Z,100221.17
2017-11-22T05:58:54.320Z,100219.45
2017-11-22T06:01:22.704Z,100222.25
2017-11-22T06:03:51.430Z,100224.73
2017-11-22T06:06:19.822Z,100231.95
2017-11-22T06:08:48.223Z,100241.29
2017-11-22T06:11:16.656Z,100228.34
2017-11-22T06:13:45.051Z,100237.16
2017-11-22T06:16:13.432Z,100231.83
2017-11-22T06:18:41.837Z,100229.96
2017-11-22T06:21:10.217Z,100239.39
2017-11-22T06:23:39.087Z,100246.17
2017-11-22T06:26:07.728Z,100241.17
2017-11-22T06:28:36.111Z,100240.87
2017-11-22T06:31:04.504Z,100249.78
2017-11-22T06:33:35.970Z,100250.23
2017-11-22T06:36:04.360Z,100247.98
2017-11-22T06:38:32.738Z,100250.14
2017-11-22T06:41:01.198Z,100241.98
2017-11-22T06:43:29.572Z,100250.50
2017-11-22T06:45:58.715Z,100247.85
2017-11-22T06:48:28.135Z,100256.20
2017-11-22T06:50:56.544Z,100256.08
2017-11-22T06:53:24.928Z,100263.84
2017-11-22T06:55:54.108Z,100267.22
2017-11-22T06:58:22.504Z,100266.20
2017-11-22T07:00:51.664Z,100265.50
2017-11-22T07:03:25.484Z,100265.20
2017-11-22T07:05:54.679Z,100269.48
2017-11-22T07:08:23.086Z,100268.96
2017-11-22T07:10:51.658Z,100269.66
2017-11-22T07:13:20.044Z,100270.42
2017-11-22T07:15:54.752Z,100268.87
2017-11-22T07:18:23.140Z,100281.33
2017-11-22T07:20:51.523Z,100268.27
2017-11-22T07:23:20.734Z,100279.69
2017-11-22T07:25:49.908Z,100286.98
2017-11-22T07:28:18.297Z,100290.34
2017-11-22T07:30:46.991Z,100303.00
2017-11-22T07:33:16.409Z,100292.55
2017-11-22T07:35:52.137Z,100301.02
2017-11-22T07:38:20.514Z,100294.63
2017-11-22T07:40:48.917Z,100314.52
2017-11-22T07:43:17.361Z,100320.48
2017-11-22T07:45:45.755Z,100329.16
2017-11-22T07:48:16.122Z,100326.45
2017-11-22T07:50:46.783Z,100334.00
2017-11-22T07:53:15.173Z,100330.47
2017-11-22T07:55:43.567Z,100334.84
2017-11-22T07:58:12.064Z,100342.23
2017-11-22T08:00:41.217Z,100339.17
2017-11-22T08:03:09.616Z,100339.08
2017-11-22T08:05:38.036Z,100328.89
2017-11-22T08:08:06.428Z,100337.45
2017-11-22T08:10:34.809Z,100341.47
2017-11-22T08:13:04.908Z,100332.64
2017-11-22T08:15:34.072Z,100345.12
2017-11-22T08:18:02.484Z,100341.63
2017-11-22T08:20:34.043Z,100337.66
2017-11-22T08:23:03.213Z,100335.56
2017-11-22T08:25:31.599Z,100348.10
2017-11-22T08:28:00.026Z,100352.19
2017-11-22T08:30:28.417Z,100354.33
2017-11-22T08:32:57.061Z,100340.30
2017-11-22T08:35:25.589Z,100353.42
2017-11-22T08:37:54.905Z,100353.52
2017-11-22T08:40:23.296Z,100358.89
2017-11-22T08:42:57.147Z,100360.06
2017-11-22T08:45:26.297Z,100354.67
2017-11-22T08:47:54.726Z,100349.50
2017-11-22T08:50:23.158Z,100351.61
2017-11-22T08:52:51.552Z,100354.86
2017-11-22T08:55:25.550Z,100352.30
2017-11-22T08:57:59.445Z,100354.22
2017-11-22T09:00:27.897Z,100367.78
2017-11-22T09:02:59.093Z,100365.06
2017-11-22T09:05:41.863Z,100366.63
2017-11-22T09:08:10.256Z,100373.06
2017-11-22T09:10:38.654Z,100379.84
2017-11-22T09:13:07.299Z,100373.38
2017-11-22T09:15:35.722Z,100385.83
2017-11-22T09:18:07.136Z,100384.64
2017-11-22T09:20:35.615Z,100389.47
2017-11-22T09:23:04.032Z,100400.89
2017-11-22T09:25:32.695Z,100404.98
2017-11-22T09:28:01.102Z,100404.52
2017-11-22T09:30:29.597Z,100399.97
2017-11-22T09:32:58.912Z,100402.84
2017-11-22T09:35:27.677Z,100404.81
2017-11-22T09:37:56.061Z,100399.96
2017-11-22T09:40:24.480Z,100402.91
2017-11-22T09:42:53.735Z,100400.17
2017-11-22T09:45:22.142Z,100403.98
2017-11-22T09:47:50.579Z,100404.84
2017-11-22T09:50:19.046Z,100410.31
2017-11-22T09:52:47.434Z,100416.34
2017-11-22T09:55:15.829Z,100417.07
2017-11-22T09:57:45.434Z,100411.24
2017-11-22T10:00:13.844Z,100413.52
2017-11-22T10:02:42.269Z,100417.05
2017-11-22T10:05:11.371Z,100412.84
2017-11-22T10:08:59.877Z,100419.79
2017-11-22T10:11:28.303Z,100409.53
2017-11-22T10:13:56.693Z,100410.17
2017-11-22T10:16:25.340Z,100407.75
2017-11-22T10:18:54.720Z,100398.34
2017-11-22T10:21:27.892Z,100404.16
2017-11-22T10:23:56.313Z,100404.65
2017-11-22T10:26:29.276Z,100412.39
2017-11-22T10:29:18.493Z,100413.45
2017-11-22T10:31:47.401Z,100409.00
2017-11-22T10:34:17.991Z,100407.66
2017-11-22T10:36:46.481Z,100407.88
2017-11-22T10:39:14.866Z,100410.69
2017-11-22T10:41:44.018Z,100409.50
2017-11-22T10:44:12.456Z,100403.31
2017-11-22T10:46:40.844Z,100413.25
2017-11-22T10:49:09.233Z,100409.09
2017-11-22T10:51:37.705Z,100403.33
2017-11-22T10:54:06.126Z,100415.31
2017-11-22T10:56:34.501Z,100404.33
2017-11-22T10:59:03.089Z,100403.58
2017-11-22T11:01:31.493Z,100409.13
2017-11-22T11:04:00.294Z,100408.17
2017-11-22T11:06:29.497Z,100394.58
2017-11-22T11:08:57.882Z,100403.95
2017-11-22T11:11:26.260Z,100403.05
2017-11-22T11:13:54.708Z,100403.57
2017-11-22T11:16:23.096Z,100403.28
2017-11-22T11:18:51.735Z,100405.23
2017-11-22T11:21:20.329Z,100406.22
2017-11-22T11:23:48.756Z,100408.02
2017-11-22T11:26:17.898Z,100409.44
2017-11-22T11:28:46.314Z,100407.79
2017-11-22T11:31:14.715Z,100401.64
2017-11-22T11:33:43.648Z,100407.03
2017-11-22T11:36:29.648Z,100412.91
2017-11-22T11:38:58.032Z,100407.43
2017-11-22T11:41:26.424Z,100409.53
2017-11-22T11:43:55.122Z,100407.91
2017-11-22T11:46:24.182Z,100408.11
2017-11-22T11:48:52.588Z,100408.19
2017-11-22T11:51:21.024Z,100413.61
2017-11-22T11:53:49.445Z,100417.98
2017-11-22T11:56:17.845Z,100413.44
2017-11-22T11:58:46.463Z,100419.41
2017-11-22T12:01:14.893Z,100424.41
2017-11-22T12:03:44.113Z,100420.44
2017-11-22T12:06:12.537Z,100422.27
2017-11-22T12:08:40.916Z,100418.85
2017-11-22T12:11:12.091Z,100426.04
2017-11-22T12:13:40.521Z,100429.05
2017-11-22T12:16:09.668Z,100432.55
2017-11-22T12:18:38.072Z,100436.47
2017-11-22T12:21:06.640Z,100429.33
2017-11-22T12:23:35.852Z,100436.78
2017-11-22T12:26:04.260Z,100434.13
2017-11-22T12:28:32.692Z,100436.05
2017-11-22T12:31:01.084Z,100430.47
2017-11-22T12:33:29.470Z,100424.95
2017-11-22T12:35:57.917Z,100419.66
2017-11-22T12:38:26.428Z,100432.70
2017-11-22T12:40:54.800Z,100423.72
2017-11-22T12:43:23.422Z,100420.97
2017-11-22T12:45:51.825Z,100430.89
2017-11-22T12:48:20.249Z,100428.09
2017-11-22T12:50:48.680Z,100425.61
2017-11-22T12:53:17.065Z,100416.58
2017-11-22T12:55:45.446Z,100436.83
2017-11-22T12:58:13.855Z,100429.36
2017-11-22T13:00:42.277Z,100421.19
2017-11-22T13:03:11.426Z,100423.92
2017-11-22T13:05:39.955Z,100425.68
2017-11-22T13:08:08.347Z,100423.20
2017-11-22T13:10:42.962Z,100423.20
2017-11-22T13:13:12.120Z,100423.56
2017-11-22T13:15:40.503Z,100423.11
2017-11-22T13:18:08.936Z,100431.65
2017-11-22T13:20:37.321Z,100432.38
2017-11-22T13:23:05.709Z,100431.45
2017-11-22T13:25:34.377Z,100421.82
2017-11-22T13:28:03.519Z,100416.03
2017-11-22T13:30:31.930Z,100423.56
2017-11-22T13:33:00.369Z,100422.92
2017-11-22T13:35:28.757Z,100418.44
2017-11-22T13:37:57.149Z,100406.17
2017-11-22T13:40:25.629Z,100398.03
2017-11-22T13:42:54.032Z,100405.11
2017-11-22T13:45:23.347Z,100402.87
2017-11-22T13:47:53.876Z,100405.73
2017-11-22T13:50:23.444Z,100408.55
2017-11-22T13:52:51.868Z,100409.08
2017-11-22T13:55:21.064Z,100405.81
2017-11-22T13:57:50.207Z,100412.03
2017-11-22T14:00:18.589Z,100403.95
2017-11-22T14:02:47.169Z,100397.70
2017-11-22T14:05:15.565Z,100395.61
2017-11-22T14:07:44.776Z,100387.13
2017-11-22T14:10:13.657Z,100380.16
2017-11-22T14:12:42.039Z,100385.88
2017-11-22T14:15:10.420Z,100383.27
2017-11-22T14:17:38.832Z,100383.59
2017-11-22T14:20:07.225Z,100378.46
2017-11-22T14:22:35.603Z,100388.77
2017-11-22T14:25:04.053Z,100393.58
2017-11-22T14:27:32.438Z,100388.39
2017-11-22T14:30:00.841Z,100397.95
2017-11-22T14:32:30.599Z,100387.19
2017-11-22T14:34:58.988Z,100387.55
2017-11-22T14:37:27.553Z,100386.04
2017-11-22T14:39:55.965Z,100393.13
2017-11-22T14:42:24.364Z,100394.62
2017-11-22T14:44:53.509Z,100389.34
2017-11-22T14:47:21.978Z,100383.45
2017-11-22T14:49:51.324Z,100383.39
2017-11-22T14:52:19.791Z,100380.72
2017-11-22T14:54:48.278Z,100385.97
2017-11-22T14:57:16.717Z,100387.64
2017-11-22T14:59:45.094Z,100380.09
2017-11-22T15:02:13.542Z,100385.53
2017-11-22T15:04:42.994Z,100374.54
2017-11-22T15:07:11.402Z,100376.13
2017-11-22T15:09:39.871Z,100376.11
2017-11-22T15:12:08.273Z,100381.37
2017-11-22T15:14:36.710Z,100378.33
2017-11-22T15:17:05.302Z,100374.77
2017-11-22T15:19:33.717Z,100374.66
2017-11-22T15:22:02.129Z,100361.64
2017-11-22T15:24:31.314Z,100361.59
2017-11-22T15:26:59.706Z,100358.16
2017-11-22T15:29:28.917Z,100363.03
2017-11-22T15:31:57.362Z,100370.04
2017-11-22T15:34:25.772Z,100371.42
2017-11-22T15:36:54.153Z,100377.37
2017-11-22T15:39:22.632Z,100379.06
2017-11-22T15:41:51.031Z,100391.94
2017-11-22T15:44:19.436Z,100373.45
2017-11-22T15:46:47.870Z,100384.16
2017-11-22T15:49:16.299Z,100391.12
2017-11-22T15:51:44.679Z,100388.59
2017-11-22T15:54:13.180Z,100384.77
2017-11-22T15:56:41.582Z,100395.53
2017-11-22T15:59:09.957Z,100384.80
2017-11-22T16:01:39.218Z,100392.81
2017-11-22T16:04:07.621Z,100380.72
2017-11-22T16:06:36.035Z,100381.42
2017-11-22T16:09:04.472Z,100381.75
2017-11-22T16:11:32.866Z,100398.83
2017-11-22T16:14:01.298Z,100385.09
2017-11-22T16:16:29.714Z,100380.99
2017-11-22T16:18:58.112Z,100380.94
2017-11-22T16:21:26.500Z,100374.91
2017-11-22T16:23:55.852Z,100374.23
2017-11-22T16:26:24.996Z,100372.52
2017-11-22T16:28:54.158Z,100372.52
2017-11-22T16:31:22.595Z,100378.39
2017-11-22T16:33:51.002Z,100375.98
2017-11-22T16:36:19.773Z,100386.06
2017-11-22T16:38:48.205Z,100377.06
2017-11-22T16:41:16.646Z,100377.66
2017-11-22T16:43:45.057Z,100388.13
2017-11-22T16:46:13.614Z,100383.31
2017-11-22T16:48:42.777Z,100390.85
2017-11-22T16:51:11.190Z,100390.27
2017-11-22T16:53:39.648Z,100394.31
2017-11-22T16:56:08.071Z,100390.86
2017-11-22T16:58:37.123Z,100383.58
2017-11-22T17:01:05.547Z,100377.81
2017-11-22T17:03:33.982Z,100383.28
2017-11-22T17:06:03.144Z,100390.06
2017-11-22T17:08:32.134Z,100382.59
2017-11-22T17:11:00.589Z,100389.23
2017-11-22T17:13:29.001Z,100380.05
2017-11-22T17:15:57.450Z,100377.05
2017-11-22T17:18:25.874Z,100376.53
2017-11-22T17:20:55.037Z,100383.34
2017-11-22T17:23:23.461Z,100373.50
2017-11-22T17:25:53.623Z,100365.47
2017-11-22T17:28:22.051Z,100373.69
2017-11-22T17:30:50.733Z,100369.75
2017-11-22T17:33:19.926Z,100374.74
2017-11-22T17:35:48.353Z,100371.80
2017-11-22T17:38:16.786Z,100364.36
2017-11-22T17:40:45.172Z,100367.13
2017-11-22T17:43:13.662Z,100365.13
2017-11-22T17:45:42.970Z,100370.52
2017-11-22T17:48:12.133Z,100365.33
2017-11-22T17:50:40.585Z,100366.63
2017-11-22T17:53:09.153Z,100370.58
2017-11-22T17:55:37.582Z,100369.50
2017-11-22T17:58:06.753Z,100361.72
2017-11-22T18:00:35.257Z,100370.27
2017-11-22T18:03:03.678Z,100362.09
2017-11-22T18:05:32.066Z,100352.60
2017-11-22T18:08:00.481Z,100355.41
2017-11-22T18:10:28.869Z,100362.61
2017-11-22T18:12:57.273Z,100354.92
2017-11-22T18:15:25.790Z,100365.31
2017-11-22T18:17:54.185Z,100355.74
2017-11-22T18:20:22.558Z,100347.80
2017-11-22T18:22:51.906Z,100352.80
2017-11-22T18:25:20.347Z,100351.78
2017-11-22T18:27:48.720Z,100347.16
2017-11-22T18:30:17.377Z,100342.33
2017-11-22T18:32:46.526Z,100340.59
2017-11-22T18:35:14.960Z,100335.92
2017-11-22T18:37:44.241Z,100325.76
2017-11-22T18:40:12.638Z,100331.27
2017-11-22T18:42:41.018Z,100329.08
2017-11-22T18:45:10.626Z,100328.13
2017-11-22T18:47:39.022Z,100321.63
2017-11-22T18:50:07.413Z,100327.96
2017-11-22T18:52:35.829Z,100321.89
2017-11-22T18:55:04.213Z,100322.56
2017-11-22T18:57:32.602Z,100313.27
2017-11-22T19:00:01.094Z,100312.70
2017-11-22T19:02:29.496Z,100304.91
2017-11-22T19:04:58.678Z,100307.96
2017-11-22T19:07:27.125Z,100301.02
2017-11-22T19:09:55.606Z,100299.16
2017-11-22T19:12:24.069Z,100293.91
2017-11-22T19:14:52.554Z,100294.11
2017-11-22T19:17:21.758Z,100295.54
2017-11-22T19:19:50.283Z,100296.48
2017-11-22T19:22:19.637Z,100285.56
2017-11-22T19:24:48.057Z,100288.70
2017-11-22T19:27:16.500Z,100291.31
2017-11-22T19:29:45.048Z,100290.88
2017-11-22T19:32:15.225Z,100290.39
2017-11-22T19:34:44.553Z,100289.03
2017-11-22T19:37:14.364Z,100286.98
2017-11-22T19:39:43.943Z,100280.70
2017-11-22T19:42:12.944Z,100285.62
2017-11-22T19:44:41.653Z,100282.58
2017-11-22T19:47:10.256Z,100270.91
2017-11-22T19:49:39.420Z,100270.59
2017-11-22T19:52:08.764Z,100276.77
2017-11-22T19:54:37.254Z,100278.53
2017-11-22T19:57:06.424Z,100270.92
2017-11-22T19:59:35.011Z,100270.52
2017-11-22T20:02:04.278Z,100268.67
2017-11-22T20:04:33.839Z,100262.50
2017-11-22T20:09:55.049Z,100271.69
2017-11-22T20:12:25.924Z,100267.58
2017-11-22T20:14:55.123Z,100264.95
2017-11-22T20:17:23.614Z,100271.70
2017-11-22T20:19:52.968Z,100266.12
2017-11-22T20:22:22.165Z,100261.81
2017-11-22T20:24:50.688Z,100261.66
2017-11-22T20:27:20.603Z,100260.28
2017-11-22T20:29:49.125Z,100262.40
2017-11-22T20:32:17.642Z,100255.96
2017-11-22T20:34:46.933Z,100258.84
2017-11-22T20:37:16.505Z,100264.77
2017-11-22T20:39:44.936Z,100256.73
2017-11-22T20:42:13.675Z,100257.19
2017-11-22T20:44:42.184Z,100259.12
2017-11-22T20:47:10.644Z,100257.17
2017-11-22T20:49:39.351Z,100254.40
2017-11-22T20:52:07.847Z,100257.25
2017-11-22T20:54:36.424Z,100256.06
2017-11-22T20:57:05.720Z,100255.06
2017-11-22T20:59:34.144Z,100255.73
2017-11-22T21:02:02.573Z,100257.94
2017-11-22T21:04:31.068Z,100251.94
2017-11-22T21:07:00.344Z,100249.82
2017-11-22T21:09:28.851Z,100253.36
2017-11-22T21:11:58.435Z,100260.30
2017-11-22T21:14:26.860Z,100254.13
2017-11-22T21:16:56.127Z,100258.27
2017-11-22T21:19:24.615Z,100258.10
2017-11-22T21:21:54.198Z,100255.82
2017-11-22T21:24:22.711Z,100260.98
2017-11-22T21:26:51.177Z,100251.69
2017-11-22T21:29:19.954Z,100259.20
2017-11-22T21:31:48.429Z,100255.31
2017-11-22T21:34:17.058Z,100251.09
2017-11-22T21:36:45.503Z,100252.70
2017-11-22T21:39:13.912Z,100252.70
2017-11-22T21:41:42.392Z,100249.23
2017-11-22T21:44:11.681Z,100252.34
2017-11-22T21:46:40.182Z,100256.41
2017-11-22T21:49:09.482Z,100261.22
2017-11-22T21:51:37.972Z,100245.77
2017-11-22T21:54:07.257Z,100243.07
2017-11-22T21:56:36.630Z,100249.66
2017-11-22T21:59:05.100Z,100238.59
2017-11-22T22:01:33.619Z,100241.80
2017-11-22T22:04:03.024Z,100242.06
2017-11-22T22:06:31.605Z,100237.75
2017-11-22T22:09:01.011Z,100232.34
2017-11-22T22:11:30.386Z,100244.09
2017-11-22T22:13:59.028Z,100246.95
2017-11-22T22:16:27.591Z,100245.69
2017-11-22T22:18:57.006Z,100246.77
2017-11-22T22:21:27.002Z,100242.30
2017-11-22T22:23:56.178Z,100247.36
2017-11-22T22:26:24.617Z,100230.13
2017-11-22T22:28:52.982Z,100238.41
2017-11-22T22:31:21.372Z,100234.94
2017-11-22T22:33:49.841Z,100225.62
2017-11-22T22:36:18.989Z,100231.31
2017-11-22T22:38:47.785Z,100235.53
2017-11-22T22:41:16.342Z,100235.32
2017-11-22T22:43:44.746Z,100232.66
2017-11-22T22:46:13.143Z,100225.99
2017-11-22T22:48:42.335Z,100224.73
2017-11-22T22:51:10.738Z,100222.45
2017-11-22T22:53:39.130Z,100212.74
2017-11-22T22:56:07.652Z,100223.06
2017-11-22T22:58:36.016Z,100223.31
2017-11-22T23:01:04.413Z,100226.09
2017-11-22T23:03:33.740Z,100216.56
2017-11-22T23:06:02.140Z,100222.38
2017-11-22T23:08:31.293Z,100213.09
2017-11-22T23:10:59.748Z,100223.66
2017-11-22T23:13:28.188Z,100212.51
2017-11-22T23:15:56.566Z,100218.42
2017-11-22T23:18:25.006Z,100206.09
2017-11-22T23:20:53.389Z,100207.10
2017-11-22T23:23:22.077Z,100207.86
2017-11-22T23:25:50.668Z,100201.69
2017-11-22T23:28:19.086Z,100199.08
2017-11-22T23:30:48.238Z,100197.47
2017-11-22T23:33:16.677Z,100200.16
2017-11-22T23:35:45.844Z,100203.02
2017-11-22T23:38:14.219Z,100192.63
2017-11-22T23:40:42.654Z,100184.86
2017-11-22T23:43:11.038Z,100180.66
2017-11-22T23:45:39.407Z,100186.30
2017-11-22T23:48:08.068Z,100182.73
2017-11-22T23:50:37.215Z,100187.03
2017-11-22T23:53:05.592Z,100186.63
2017-11-22T23:55:34.902Z,100181.53
2017-11-22T23:58:03.300Z,100181.06
